Fernando Pessoa — CSKQ — position and weather

sailwx.info

Track history (hours):
 
Tides and Currents Weather Stations Pressure Air Temp Water Temp Dewpoint Dewpoint Depression Visibility Wind Speed Wind Dir Waves Ship Positions

Fernando Pessoa

Last reported at 2016-Apr-23 08:32 UTC. Time now 2016-May-01 08:00 UTC.
Position N 38°39' W 009°05'.

Length 49 m.

MMSI: 263701470.

Date/timePositionNaut miles runAvg speedWind from/ knotsBaromVisibWave heightAir tempDewpointWater temp
2016-Apr-23 08:32N 38°39' W 009°05'0 0.0
2016-Apr-22 16:33N 38°39' W 009°05'0 0.0
2016-Apr-22 09:33N 38°39' W 009°05'1 1.1
2016-Apr-22 08:33N 38°40' W 009°06'0 0.4
2016-Apr-22 07:33N 38°40' W 009°07'2 1.7
2016-Apr-22 06:33N 38°39' W 009°05'0 0.0
2016-Apr-22 05:33N 38°39' W 009°05'0 0.0
2016-Apr-22 04:33N 38°39' W 009°05'0 0.0
2016-Apr-22 03:33N 38°39' W 009°05'0 0.0
2016-Apr-22 02:33N 38°39' W 009°05'0 0.0
2016-Apr-22 01:33N 38°39' W 009°05'0 0.0
2016-Apr-22 00:33N 38°39' W 009°05'0 0.0
2016-Apr-21 23:34N 38°39' W 009°05'4 4.0
2016-Apr-21 22:33N 38°42' W 009°08'1 1.3
2016-Apr-21 21:33N 38°41' W 009°08'0 0.1
2016-Apr-21 20:33N 38°41' W 009°08'3 2.9
2016-Apr-21 19:33N 38°39' W 009°05'0 0.2
2016-Apr-21 18:33N 38°39' W 009°05'0 0.2
2016-Apr-21 17:33N 38°39' W 009°05'1 1.4
2016-Apr-21 16:33N 38°40' W 009°06'1 1.3
2016-Apr-21 15:33N 38°39' W 009°05'0 0.0
2016-Apr-21 08:30N 38°39' W 009°05'0 0.1
2016-Apr-21 07:34N 38°39' W 009°05'0 0.2
2016-Apr-21 06:33N 38°39' W 009°05'0 0.1
2016-Apr-21 05:33N 38°39' W 009°05'0 0.1
2016-Apr-21 04:33N 38°39' W 009°05'0 0.0
2016-Apr-21 03:33N 38°39' W 009°05'0 0.0
2016-Apr-21 02:33N 38°39' W 009°05'0 0.0
2016-Apr-21 01:34N 38°39' W 009°05'0 0.0
2016-Apr-21 00:33N 38°39' W 009°05'0 0.0
2016-Apr-20 23:33N 38°39' W 009°05'0 0.0
2016-Apr-20 22:33N 38°39' W 009°05'0 0.0
2016-Apr-20 21:34N 38°39' W 009°05'0 0.0
2016-Apr-20 20:32N 38°39' W 009°05'0 0.0
2016-Apr-20 19:33N 38°39' W 009°05'4 4.0
2016-Apr-20 18:32N 38°42' W 009°08'0 0.0
2016-Apr-20 17:33N 38°42' W 009°08'3 2.5
2016-Apr-20 16:33N 38°40' W 009°07'1 1.4
2016-Apr-20 15:33N 38°39' W 009°05'1 0.8
2016-Apr-20 14:33N 38°40' W 009°06'1 1.2
2016-Apr-20 13:33N 38°39' W 009°05'0 0.0
2016-Apr-20 12:33N 38°39' W 009°05'0 0.0
2016-Apr-20 11:33N 38°39' W 009°05'0 0.0
2016-Apr-20 10:33N 38°39' W 009°05'1 1.3
2016-Apr-20 09:34N 38°40' W 009°06'0 0.1
2016-Apr-20 08:34N 38°40' W 009°06'0 0.3
2016-Apr-20 07:34N 38°40' W 009°07'2 1.7
2016-Apr-20 06:33N 38°39' W 009°05'0 0.0
2016-Apr-20 05:33N 38°39' W 009°05'0 0.0
2016-Apr-20 04:33N 38°39' W 009°05'0 0.0
2016-Apr-20 03:33N 38°39' W 009°05'0 0.0
2016-Apr-20 02:33N 38°39' W 009°05'0 0.0
2016-Apr-20 01:33N 38°39' W 009°05'0 0.0
2016-Apr-20 00:33N 38°39' W 009°05'0 0.0
2016-Apr-19 23:33N 38°39' W 009°05'4 4.2
2016-Apr-19 22:34N 38°42' W 009°08'2 1.7
2016-Apr-19 21:33N 38°41' W 009°08'0 0.2
2016-Apr-19 20:33N 38°41' W 009°08'3 2.9
2016-Apr-19 19:33N 38°39' W 009°05'0 0.4
2016-Apr-19 18:33N 38°39' W 009°05'0 0.4
2016-Apr-19 17:33N 38°39' W 009°05'2 1.7
2016-Apr-19 16:33N 38°40' W 009°07'2 1.7
2016-Apr-19 15:33N 38°39' W 009°05'0 0.0
2016-Apr-19 12:26N 38°39' W 009°05'1 1.5
2016-Apr-19 11:33N 38°40' W 009°06'0 0.2
2016-Apr-19 10:33N 38°40' W 009°06'1 1.3
2016-Apr-19 09:34N 38°39' W 009°05'0 0.0
2016-Apr-19 08:33N 38°39' W 009°05'0 0.1
2016-Apr-19 07:33N 38°39' W 009°05'1 1.1
2016-Apr-19 06:33N 38°40' W 009°06'1 1.0
2016-Apr-19 05:33N 38°39' W 009°05'0 0.0
2016-Apr-18 20:19N 38°39' W 009°05'3 4.2
2016-Apr-18 19:33N 38°41' W 009°08'2 2.2
2016-Apr-18 18:33N 38°40' W 009°06'3 3.0
2016-Apr-18 17:33N 38°42' W 009°08'0 0.3
2016-Apr-18 16:33N 38°42' W 009°08'1 1.0
2016-Apr-18 15:33N 38°41' W 009°08'3 3.4
2016-Apr-18 14:33N 38°39' W 009°05'1 1.1
2016-Apr-18 13:32N 38°40' W 009°06'0 0.2
2016-Apr-18 12:33N 38°40' W 009°06'1 1.2
2016-Apr-18 11:33N 38°39' W 009°05'0 0.0
2016-Apr-18 10:34N 38°39' W 009°05'3 2.7
2016-Apr-18 09:33N 38°41' W 009°08'3 2.8
2016-Apr-18 08:33N 38°39' W 009°05'1 0.7
2016-Apr-18 07:34N 38°39' W 009°06'3 3.3
2016-Apr-18 06:34N 38°42' W 009°08'0 0.4
2016-Apr-18 05:34N 38°42' W 009°08'0 0.2
2016-Apr-18 04:33N 38°42' W 009°08'4 1.3
2016-Apr-18 01:25N 38°39' W 009°05'0 0.5
2016-Apr-18 00:33N 38°39' W 009°05'0 0.1
2016-Apr-17 23:33N 38°39' W 009°05'0 0.0
2016-Apr-17 22:34N 38°39' W 009°05'1 1.3
2016-Apr-17 21:33N 38°40' W 009°07'0 0.1
2016-Apr-17 20:33N 38°40' W 009°07'0 0.3
2016-Apr-17 19:33N 38°40' W 009°06'2 1.6
2016-Apr-17 18:33N 38°41' W 009°08'0 0.1
2016-Apr-17 17:33N 38°41' W 009°08'0 0.3
2016-Apr-17 16:34N 38°41' W 009°08'0 0.2
2016-Apr-17 15:34N 38°41' W 009°08'0 0.3
2016-Apr-17 14:33N 38°41' W 009°08'3 2.8
2016-Apr-17 13:33N 38°39' W 009°05'0 0.0
2016-Apr-17 12:33N 38°39' W 009°05'2 1.6
2016-Apr-17 11:33N 38°40' W 009°07'0 0.0
2016-Apr-17 10:33N 38°40' W 009°07'2 1.6
2016-Apr-17 09:33N 38°39' W 009°05'0 0.0
2016-Apr-15 21:30N 38°39' W 009°05'0 0.0
2016-Apr-15 20:33N 38°39' W 009°05'0 0.0
2016-Apr-15 19:33N 38°39' W 009°05'4 4.0
2016-Apr-15 18:33N 38°42' W 009°08'0 0.2
2016-Apr-15 17:33N 38°42' W 009°08'3 2.6
2016-Apr-15 16:33N 38°40' W 009°07'1 1.5
2016-Apr-15 15:33N 38°39' W 009°05'1 1.1
2016-Apr-15 14:33N 38°40' W 009°06'0 0.2
2016-Apr-15 13:33N 38°40' W 009°07'0 0.4
2016-Apr-15 12:33N 38°40' W 009°06'1 1.3
2016-Apr-15 11:33N 38°39' W 009°05'0 0.0
2016-Apr-15 10:33N 38°39' W 009°05'3 2.9
2016-Apr-15 09:33N 38°41' W 009°08'3 3.1
2016-Apr-15 08:33N 38°39' W 009°05'1 1.0
2016-Apr-15 07:33N 38°39' W 009°06'3 3.1
2016-Apr-15 06:33N 38°42' W 009°08'0 0.3
2016-Apr-15 05:34N 38°42' W 009°08'0 0.0
2016-Apr-15 04:34N 38°42' W 009°08'4 4.2
2016-Apr-15 03:34N 38°39' W 009°05'0 0.0
2016-Apr-15 02:33N 38°39' W 009°05'0 0.0
2016-Apr-15 01:33N 38°39' W 009°05'0 0.5
2016-Apr-15 00:33N 38°39' W 009°05'0 0.1
2016-Apr-14 23:33N 38°39' W 009°05'0 0.3
2016-Apr-14 22:33N 38°39' W 009°05'1 1.4
2016-Apr-14 21:33N 38°40' W 009°07'0 0.1
2016-Apr-14 20:33N 38°40' W 009°07'2 1.9
2016-Apr-14 19:33N 38°42' W 009°08'3 2.6
2016-Apr-14 18:33N 38°39' W 009°06'3 3.2
2016-Apr-14 17:33N 38°42' W 009°08'0 0.2
2016-Apr-14 16:34N 38°42' W 009°08'1 0.8
2016-Apr-14 15:33N 38°42' W 009°08'3 3.4
2016-Apr-14 14:33N 38°39' W 009°05'0 0.0
2016-Apr-14 13:33N 38°39' W 009°05'0 0.0
2016-Apr-14 12:33N 38°39' W 009°05'1 1.4
2016-Apr-14 11:33N 38°40' W 009°06'0 0.0
2016-Apr-14 10:33N 38°40' W 009°06'2 1.6
2016-Apr-14 09:33N 38°39' W 009°05'0 0.0
2016-Apr-14 08:34N 38°39' W 009°05'0 0.0
2016-Apr-14 07:33N 38°39' W 009°05'1 1.4
2016-Apr-14 06:33N 38°40' W 009°06'1 1.3
2016-Apr-14 05:33N 38°39' W 009°05'0 0.0
2016-Apr-13 20:15N 38°39' W 009°05'3 4.7
2016-Apr-13 19:33N 38°41' W 009°08'2 2.2
2016-Apr-13 18:33N 38°40' W 009°06'3 2.9
2016-Apr-13 17:33N 38°42' W 009°08'0 0.3
2016-Apr-13 16:33N 38°42' W 009°08'1 1.2
2016-Apr-13 15:34N 38°41' W 009°08'3 3.1
2016-Apr-13 14:33N 38°39' W 009°05'2 1.8
2016-Apr-13 13:33N 38°40' W 009°07'1 0.5
2016-Apr-13 12:33N 38°40' W 009°06'1 1.2
2016-Apr-13 11:33N 38°39' W 009°05'0 0.0
2016-Apr-13 10:33N 38°39' W 009°05'3 2.9
2016-Apr-13 09:33N 38°41' W 009°08'3 3.1
2016-Apr-13 08:33N 38°39' W 009°05'  
Track history (hours):
 
Tides and Currents Weather Stations Pressure Air Temp Water Temp Dewpoint Dewpoint Depression Visibility Wind Speed Wind Dir Waves Ship Positions

Fernando Pessoa

Last reported at 2016-Apr-23 08:32 UTC. Time now 2016-May-01 08:00 UTC.
Position N 38°39' W 009°05'.

Length 49 m.

MMSI: 263701470.

Date/timePositionNaut miles runAvg speedWind from/ knotsBaromVisibWave heightAir tempDewpointWater temp
2016-Apr-23 08:32N 38°39' W 009°05'0 0.0
2016-Apr-22 16:33N 38°39' W 009°05'0 0.0
2016-Apr-22 09:33N 38°39' W 009°05'1 1.1
2016-Apr-22 08:33N 38°40' W 009°06'0 0.4
2016-Apr-22 07:33N 38°40' W 009°07'2 1.7
2016-Apr-22 06:33N 38°39' W 009°05'0 0.0
2016-Apr-22 05:33N 38°39' W 009°05'0 0.0
2016-Apr-22 04:33N 38°39' W 009°05'0 0.0
2016-Apr-22 03:33N 38°39' W 009°05'0 0.0
2016-Apr-22 02:33N 38°39' W 009°05'0 0.0
2016-Apr-22 01:33N 38°39' W 009°05'0 0.0
2016-Apr-22 00:33N 38°39' W 009°05'0 0.0
2016-Apr-21 23:34N 38°39' W 009°05'4 4.0
2016-Apr-21 22:33N 38°42' W 009°08'1 1.3
2016-Apr-21 21:33N 38°41' W 009°08'0 0.1
2016-Apr-21 20:33N 38°41' W 009°08'3 2.9
2016-Apr-21 19:33N 38°39' W 009°05'0 0.2
2016-Apr-21 18:33N 38°39' W 009°05'0 0.2
2016-Apr-21 17:33N 38°39' W 009°05'1 1.4
2016-Apr-21 16:33N 38°40' W 009°06'1 1.3
2016-Apr-21 15:33N 38°39' W 009°05'0 0.0
2016-Apr-21 08:30N 38°39' W 009°05'0 0.1
2016-Apr-21 07:34N 38°39' W 009°05'0 0.2
2016-Apr-21 06:33N 38°39' W 009°05'0 0.1
2016-Apr-21 05:33N 38°39' W 009°05'0 0.1
2016-Apr-21 04:33N 38°39' W 009°05'0 0.0
2016-Apr-21 03:33N 38°39' W 009°05'0 0.0
2016-Apr-21 02:33N 38°39' W 009°05'0 0.0
2016-Apr-21 01:34N 38°39' W 009°05'0 0.0
2016-Apr-21 00:33N 38°39' W 009°05'0 0.0
2016-Apr-20 23:33N 38°39' W 009°05'0 0.0
2016-Apr-20 22:33N 38°39' W 009°05'0 0.0
2016-Apr-20 21:34N 38°39' W 009°05'0 0.0
2016-Apr-20 20:32N 38°39' W 009°05'0 0.0
2016-Apr-20 19:33N 38°39' W 009°05'4 4.0
2016-Apr-20 18:32N 38°42' W 009°08'0 0.0
2016-Apr-20 17:33N 38°42' W 009°08'3 2.5
2016-Apr-20 16:33N 38°40' W 009°07'1 1.4
2016-Apr-20 15:33N 38°39' W 009°05'1 0.8
2016-Apr-20 14:33N 38°40' W 009°06'1 1.2
2016-Apr-20 13:33N 38°39' W 009°05'0 0.0
2016-Apr-20 12:33N 38°39' W 009°05'0 0.0
2016-Apr-20 11:33N 38°39' W 009°05'0 0.0
2016-Apr-20 10:33N 38°39' W 009°05'1 1.3
2016-Apr-20 09:34N 38°40' W 009°06'0 0.1
2016-Apr-20 08:34N 38°40' W 009°06'0 0.3
2016-Apr-20 07:34N 38°40' W 009°07'2 1.7
2016-Apr-20 06:33N 38°39' W 009°05'0 0.0
2016-Apr-20 05:33N 38°39' W 009°05'0 0.0
2016-Apr-20 04:33N 38°39' W 009°05'0 0.0
2016-Apr-20 03:33N 38°39' W 009°05'0 0.0
2016-Apr-20 02:33N 38°39' W 009°05'0 0.0
2016-Apr-20 01:33N 38°39' W 009°05'0 0.0
2016-Apr-20 00:33N 38°39' W 009°05'0 0.0
2016-Apr-19 23:33N 38°39' W 009°05'4 4.2
2016-Apr-19 22:34N 38°42' W 009°08'2 1.7
2016-Apr-19 21:33N 38°41' W 009°08'0 0.2
2016-Apr-19 20:33N 38°41' W 009°08'3 2.9
2016-Apr-19 19:33N 38°39' W 009°05'0 0.4
2016-Apr-19 18:33N 38°39' W 009°05'0 0.4
2016-Apr-19 17:33N 38°39' W 009°05'2 1.7
2016-Apr-19 16:33N 38°40' W 009°07'2 1.7
2016-Apr-19 15:33N 38°39' W 009°05'0 0.0
2016-Apr-19 12:26N 38°39' W 009°05'1 1.5
2016-Apr-19 11:33N 38°40' W 009°06'0 0.2
2016-Apr-19 10:33N 38°40' W 009°06'1 1.3
2016-Apr-19 09:34N 38°39' W 009°05'0 0.0
2016-Apr-19 08:33N 38°39' W 009°05'0 0.1
2016-Apr-19 07:33N 38°39' W 009°05'1 1.1
2016-Apr-19 06:33N 38°40' W 009°06'1 1.0
2016-Apr-19 05:33N 38°39' W 009°05'0 0.0
2016-Apr-18 20:19N 38°39' W 009°05'3 4.2
2016-Apr-18 19:33N 38°41' W 009°08'2 2.2
2016-Apr-18 18:33N 38°40' W 009°06'3 3.0
2016-Apr-18 17:33N 38°42' W 009°08'0 0.3
2016-Apr-18 16:33N 38°42' W 009°08'1 1.0
2016-Apr-18 15:33N 38°41' W 009°08'3 3.4
2016-Apr-18 14:33N 38°39' W 009°05'1 1.1
2016-Apr-18 13:32N 38°40' W 009°06'0 0.2
2016-Apr-18 12:33N 38°40' W 009°06'1 1.2
2016-Apr-18 11:33N 38°39' W 009°05'0 0.0
2016-Apr-18 10:34N 38°39' W 009°05'3 2.7
2016-Apr-18 09:33N 38°41' W 009°08'3 2.8
2016-Apr-18 08:33N 38°39' W 009°05'1 0.7
2016-Apr-18 07:34N 38°39' W 009°06'3 3.3
2016-Apr-18 06:34N 38°42' W 009°08'0 0.4
2016-Apr-18 05:34N 38°42' W 009°08'0 0.2
2016-Apr-18 04:33N 38°42' W 009°08'4 1.3
2016-Apr-18 01:25N 38°39' W 009°05'0 0.5
2016-Apr-18 00:33N 38°39' W 009°05'0 0.1
2016-Apr-17 23:33N 38°39' W 009°05'0 0.0
2016-Apr-17 22:34N 38°39' W 009°05'1 1.3
2016-Apr-17 21:33N 38°40' W 009°07'0 0.1
2016-Apr-17 20:33N 38°40' W 009°07'0 0.3
2016-Apr-17 19:33N 38°40' W 009°06'2 1.6
2016-Apr-17 18:33N 38°41' W 009°08'0 0.1
2016-Apr-17 17:33N 38°41' W 009°08'0 0.3
2016-Apr-17 16:34N 38°41' W 009°08'0 0.2
2016-Apr-17 15:34N 38°41' W 009°08'0 0.3
2016-Apr-17 14:33N 38°41' W 009°08'3 2.8
2016-Apr-17 13:33N 38°39' W 009°05'0 0.0
2016-Apr-17 12:33N 38°39' W 009°05'2 1.6
2016-Apr-17 11:33N 38°40' W 009°07'0 0.0
2016-Apr-17 10:33N 38°40' W 009°07'2 1.6
2016-Apr-17 09:33N 38°39' W 009°05'0 0.0
2016-Apr-15 21:30N 38°39' W 009°05'0 0.0
2016-Apr-15 20:33N 38°39' W 009°05'0 0.0
2016-Apr-15 19:33N 38°39' W 009°05'4 4.0
2016-Apr-15 18:33N 38°42' W 009°08'0 0.2
2016-Apr-15 17:33N 38°42' W 009°08'3 2.6
2016-Apr-15 16:33N 38°40' W 009°07'1 1.5
2016-Apr-15 15:33N 38°39' W 009°05'1 1.1
2016-Apr-15 14:33N 38°40' W 009°06'0 0.2
2016-Apr-15 13:33N 38°40' W 009°07'0 0.4
2016-Apr-15 12:33N 38°40' W 009°06'1 1.3
2016-Apr-15 11:33N 38°39' W 009°05'0 0.0
2016-Apr-15 10:33N 38°39' W 009°05'3 2.9
2016-Apr-15 09:33N 38°41' W 009°08'3 3.1
2016-Apr-15 08:33N 38°39' W 009°05'1 1.0
2016-Apr-15 07:33N 38°39' W 009°06'3 3.1
2016-Apr-15 06:33N 38°42' W 009°08'0 0.3
2016-Apr-15 05:34N 38°42' W 009°08'0 0.0
2016-Apr-15 04:34N 38°42' W 009°08'4 4.2
2016-Apr-15 03:34N 38°39' W 009°05'0 0.0
2016-Apr-15 02:33N 38°39' W 009°05'0 0.0
2016-Apr-15 01:33N 38°39' W 009°05'0 0.5
2016-Apr-15 00:33N 38°39' W 009°05'0 0.1
2016-Apr-14 23:33N 38°39' W 009°05'0 0.3
2016-Apr-14 22:33N 38°39' W 009°05'1 1.4
2016-Apr-14 21:33N 38°40' W 009°07'0 0.1
2016-Apr-14 20:33N 38°40' W 009°07'2 1.9
2016-Apr-14 19:33N 38°42' W 009°08'3 2.6
2016-Apr-14 18:33N 38°39' W 009°06'3 3.2
2016-Apr-14 17:33N 38°42' W 009°08'0 0.2
2016-Apr-14 16:34N 38°42' W 009°08'1 0.8
2016-Apr-14 15:33N 38°42' W 009°08'3 3.4
2016-Apr-14 14:33N 38°39' W 009°05'0 0.0
2016-Apr-14 13:33N 38°39' W 009°05'0 0.0
2016-Apr-14 12:33N 38°39' W 009°05'1 1.4
2016-Apr-14 11:33N 38°40' W 009°06'0 0.0
2016-Apr-14 10:33N 38°40' W 009°06'2 1.6
2016-Apr-14 09:33N 38°39' W 009°05'0 0.0
2016-Apr-14 08:34N 38°39' W 009°05'0 0.0
2016-Apr-14 07:33N 38°39' W 009°05'1 1.4
2016-Apr-14 06:33N 38°40' W 009°06'1 1.3
2016-Apr-14 05:33N 38°39' W 009°05'0 0.0
2016-Apr-13 20:15N 38°39' W 009°05'3 4.7
2016-Apr-13 19:33N 38°41' W 009°08'2 2.2
2016-Apr-13 18:33N 38°40' W 009°06'3 2.9
2016-Apr-13 17:33N 38°42' W 009°08'0 0.3
2016-Apr-13 16:33N 38°42' W 009°08'1 1.2
2016-Apr-13 15:34N 38°41' W 009°08'3 3.1
2016-Apr-13 14:33N 38°39' W 009°05'2 1.8
2016-Apr-13 13:33N 38°40' W 009°07'1 0.5
2016-Apr-13 12:33N 38°40' W 009°06'1 1.2
2016-Apr-13 11:33N 38°39' W 009°05'0 0.0
2016-Apr-13 10:33N 38°39' W 009°05'3 2.9
2016-Apr-13 09:33N 38°41' W 009°08'3 3.1
2016-Apr-13 08:33N 38°39' W 009°05'  

Dump ship's entire track history